Time;durP1;ratioP1;P1;durP2;ratioP2;P2;SDS_P1;SDS_P2;PMS_P1;PMS_P2;Temp;Humidity;BMP_temperature;BMP_pressure;BME280_temperature;BME280_humidity;BME280_pressure;Samples;Min_cycle;Max_cycle;Signal;HPM_P1;HPM_P2
2024/03/03 00:01:05;;;;;;;22.20;14.23;;;6.70;99.90;;;;;;4962973;28;20033;-52
2024/03/03 00:03:31;;;;;;;24.73;14.48;;;6.60;99.90;;;;;;4952687;28;20048;-54
2024/03/03 00:05:56;;;;;;;22.10;15.20;;;6.70;99.90;;;;;;4986953;28;20460;-55
2024/03/03 00:08:23;;;;;;;23.13;14.57;;;6.60;99.90;;;;;;4956426;28;20121;-53
2024/03/03 00:10:50;;;;;;;19.92;14.32;;;6.60;99.90;;;;;;4954344;28;20026;-53
2024/03/03 00:13:16;;;;;;;21.70;14.27;;;6.60;99.90;;;;;;4960133;28;20022;-50
2024/03/03 00:15:41;;;;;;;23.20;14.32;;;6.50;99.90;;;;;;4941360;28;20034;-55
2024/03/03 00:18:07;;;;;;;25.92;14.98;;;6.50;99.90;;;;;;4964634;28;20021;-59
2024/03/03 00:20:33;;;;;;;22.23;15.13;;;6.60;99.90;;;;;;4952118;28;20076;-55
2024/03/03 00:22:58;;;;;;;21.48;14.73;;;6.50;99.90;;;;;;4928463;28;20117;-52
2024/03/03 00:25:24;;;;;;;20.55;14.65;;;6.50;99.90;;;;;;4959069;28;20052;-51
2024/03/03 00:27:49;;;;;;;22.77;14.95;;;6.50;99.90;;;;;;4941571;28;20494;-50
2024/03/03 00:30:15;;;;;;;24.42;14.55;;;6.50;99.90;;;;;;4940635;28;20056;-52
2024/03/03 00:32:44;;;;;;;25.63;16.00;;;6.50;99.90;;;;;;4965747;28;20504;-57
2024/03/03 00:35:10;;;;;;;26.00;15.68;;;6.50;99.90;;;;;;4951288;28;20034;-54
2024/03/03 00:37:35;;;;;;;25.23;16.15;;;6.50;99.90;;;;;;4952599;28;20026;-54
2024/03/03 00:40:01;;;;;;;24.05;14.77;;;6.50;99.90;;;;;;4941657;28;20022;-54
2024/03/03 00:42:26;;;;;;;29.48;15.98;;;6.50;99.90;;;;;;4931374;28;20850;-54
2024/03/03 00:44:52;;;;;;;21.17;13.98;;;6.40;99.90;;;;;;4964233;28;20034;-57
2024/03/03 00:47:17;;;;;;;24.92;14.13;;;6.40;99.90;;;;;;4941323;28;20038;-54
2024/03/03 00:49:43;;;;;;;24.75;15.43;;;6.40;99.90;;;;;;4931321;28;20035;-55
2024/03/03 00:52:08;;;;;;;22.60;15.85;;;6.40;99.90;;;;;;4959015;28;20026;-54
2024/03/03 00:54:34;;;;;;;28.17;15.77;;;6.30;99.90;;;;;;4922960;28;20082;-56
2024/03/03 00:56:59;;;;;;;26.10;16.40;;;6.40;99.90;;;;;;4943997;28;20026;-54
2024/03/03 00:59:25;;;;;;;23.27;15.52;;;6.40;99.90;;;;;;4955131;28;20394;-59
2024/03/03 01:01:50;;;;;;;27.73;17.63;;;6.40;99.90;;;;;;4927148;28;20395;-54
2024/03/03 01:04:16;;;;;;;23.95;16.33;;;6.30;99.90;;;;;;4953572;28;20054;-54
2024/03/03 01:06:42;;;;;;;25.70;17.05;;;6.30;99.90;;;;;;4935458;28;20026;-54
2024/03/03 01:09:07;;;;;;;26.85;17.02;;;6.30;99.90;;;;;;4954484;28;20105;-59
2024/03/03 01:11:33;;;;;;;27.35;15.43;;;6.30;99.90;;;;;;4953425;28;20117;-56
2024/03/03 01:13:58;;;;;;;27.83;17.58;;;6.30;99.90;;;;;;4950805;28;20108;-55
2024/03/03 01:16:24;;;;;;;24.23;16.17;;;6.30;99.90;;;;;;4944172;28;20462;-54
2024/03/03 01:18:49;;;;;;;22.80;15.90;;;6.20;99.90;;;;;;4941576;28;20018;-56
2024/03/03 01:21:15;;;;;;;23.40;15.93;;;6.20;99.90;;;;;;4928346;28;20499;-54
2024/03/03 01:23:41;;;;;;;27.17;17.17;;;6.20;99.90;;;;;;4974077;28;20029;-52
2024/03/03 01:26:06;;;;;;;25.33;16.20;;;6.20;99.90;;;;;;4945426;28;20029;-53
2024/03/03 01:28:32;;;;;;;26.50;17.60;;;6.10;99.90;;;;;;4957862;28;20025;-55
2024/03/03 01:30:57;;;;;;;26.25;16.85;;;6.10;99.90;;;;;;4928995;28;20038;-52
2024/03/03 01:33:23;;;;;;;27.02;16.27;;;6.10;99.90;;;;;;4926154;28;20057;-54
2024/03/03 01:35:48;;;;;;;29.85;17.38;;;6.10;99.90;;;;;;4964352;28;20044;-55
2024/03/03 01:38:14;;;;;;;28.63;17.17;;;6.10;99.90;;;;;;4945123;28;20034;-54
2024/03/03 01:40:39;;;;;;;24.45;16.77;;;6.10;99.90;;;;;;4938773;28;20026;-53
2024/03/03 01:43:06;;;;;;;28.63;16.63;;;6.00;99.90;;;;;;4921745;28;20091;-54
2024/03/03 01:45:32;;;;;;;28.88;18.33;;;6.00;99.90;;;;;;4930495;28;21869;-55
2024/03/03 01:47:58;;;;;;;24.83;17.00;;;6.00;99.90;;;;;;4976529;28;20560;-55
2024/03/03 01:50:25;;;;;;;27.42;18.10;;;6.00;99.90;;;;;;4940354;28;20030;-56
2024/03/03 01:52:52;;;;;;;27.52;17.65;;;6.00;99.90;;;;;;4916272;28;20543;-56
2024/03/03 01:55:21;;;;;;;30.15;17.45;;;6.00;99.90;;;;;;4941394;28;20676;-55
2024/03/03 01:57:49;;;;;;;31.35;18.27;;;6.00;99.90;;;;;;4917331;28;20045;-56
2024/03/03 02:00:15;;;;;;;28.02;18.23;;;6.00;99.90;;;;;;4913789;28;20034;-54
2024/03/03 02:02:42;;;;;;;29.75;18.27;;;6.00;99.90;;;;;;4954222;28;20088;-55
2024/03/03 02:05:10;;;;;;;27.02;18.10;;;5.90;99.90;;;;;;4934582;28;20406;-53
2024/03/03 02:07:36;;;;;;;27.27;18.63;;;5.90;99.90;;;;;;4940496;28;20025;-53
2024/03/03 02:10:02;;;;;;;27.13;17.60;;;5.90;99.90;;;;;;4909663;28;20025;-56
2024/03/03 02:12:30;;;;;;;29.50;18.02;;;5.90;99.90;;;;;;4907395;28;21495;-56
2024/03/03 02:14:56;;;;;;;27.50;18.08;;;5.90;99.90;;;;;;4952439;28;20022;-55
2024/03/03 02:17:22;;;;;;;32.22;19.17;;;5.90;99.90;;;;;;4932992;28;20027;-55
2024/03/03 02:19:47;;;;;;;31.35;18.48;;;5.90;99.90;;;;;;4906753;28;20181;-53
2024/03/03 02:22:13;;;;;;;27.30;18.42;;;5.90;99.90;;;;;;4941662;28;20030;-53
2024/03/03 02:24:38;;;;;;;31.38;18.55;;;5.90;99.90;;;;;;4900898;28;20065;-52
2024/03/03 02:27:04;;;;;;;32.83;18.63;;;5.90;99.90;;;;;;4950165;28;20900;-53
2024/03/03 02:29:31;;;;;;;30.67;18.83;;;5.90;99.90;;;;;;4919792;28;20034;-52
2024/03/03 02:31:56;;;;;;;30.88;17.85;;;5.90;99.90;;;;;;4929868;28;20026;-55
2024/03/03 02:34:26;;;;;;;29.52;18.77;;;5.90;99.90;;;;;;4932866;28;20445;-52
2024/03/03 02:36:51;;;;;;;28.17;17.52;;;5.90;99.90;;;;;;4922438;28;20692;-56
2024/03/03 02:39:17;;;;;;;31.88;18.30;;;6.00;99.90;;;;;;4905696;28;20109;-54
2024/03/03 02:41:42;;;;;;;30.00;19.25;;;6.00;99.90;;;;;;4947096;28;20026;-53
2024/03/03 02:44:08;;;;;;;34.10;18.00;;;6.00;99.90;;;;;;4924504;28;20537;-54
2024/03/03 02:46:33;;;;;;;28.20;18.60;;;6.00;99.90;;;;;;4920113;28;20038;-54
2024/03/03 02:48:59;;;;;;;33.63;18.77;;;6.00;99.90;;;;;;4889383;28;20046;-53
2024/03/03 02:51:26;;;;;;;27.92;19.30;;;5.90;99.90;;;;;;4901062;28;21518;-55
2024/03/03 02:53:52;;;;;;;30.95;18.88;;;5.90;99.90;;;;;;4963220;28;20037;-55
2024/03/03 02:56:18;;;;;;;32.92;18.85;;;6.00;99.90;;;;;;4922053;28;20029;-55
2024/03/03 02:58:43;;;;;;;28.73;17.55;;;5.90;99.90;;;;;;4918993;28;20034;-59
2024/03/03 03:01:09;;;;;;;26.65;17.45;;;5.90;99.90;;;;;;4905207;28;20433;-53
2024/03/03 03:03:35;;;;;;;27.73;17.00;;;5.90;99.90;;;;;;4885550;28;20045;-56
2024/03/03 03:06:00;;;;;;;33.85;18.30;;;5.90;99.90;;;;;;4939904;28;20044;-56
2024/03/03 03:08:26;;;;;;;31.10;17.75;;;5.80;99.90;;;;;;4920853;28;20026;-57
2024/03/03 03:10:51;;;;;;;27.17;17.25;;;5.80;99.90;;;;;;4919302;28;20038;-52
2024/03/03 03:13:17;;;;;;;25.08;18.00;;;5.80;99.90;;;;;;4924213;28;20120;-55
2024/03/03 03:15:42;;;;;;;26.55;16.98;;;5.80;99.90;;;;;;4884844;28;20136;-55
2024/03/03 03:18:08;;;;;;;34.80;19.83;;;5.80;99.90;;;;;;4952203;28;20102;-59
2024/03/03 03:20:34;;;;;;;29.55;18.00;;;5.80;99.90;;;;;;4916748;28;20398;-55
2024/03/03 03:23:00;;;;;;;29.83;18.25;;;5.80;99.90;;;;;;4915774;28;20037;-53
2024/03/03 03:25:25;;;;;;;32.10;17.90;;;5.80;99.90;;;;;;4911969;28;20286;-55
2024/03/03 03:27:51;;;;;;;27.13;17.05;;;5.80;99.90;;;;;;4898907;28;20022;-59
2024/03/03 03:30:16;;;;;;;28.27;18.17;;;5.80;99.90;;;;;;4904381;28;20025;-59
2024/03/03 03:32:42;;;;;;;28.85;18.08;;;5.70;99.90;;;;;;4933888;28;20468;-54
2024/03/03 03:35:09;;;;;;;33.05;18.77;;;5.80;99.90;;;;;;4915608;28;20673;-55
2024/03/03 03:37:35;;;;;;;29.23;17.13;;;5.70;99.90;;;;;;4929280;28;20124;-55
2024/03/03 03:40:03;;;;;;;32.90;18.02;;;5.70;99.90;;;;;;4906022;28;20036;-54
2024/03/03 03:42:29;;;;;;;23.65;16.98;;;5.80;99.90;;;;;;4870408;28;21383;-54
2024/03/03 03:44:54;;;;;;;28.23;17.23;;;5.80;99.90;;;;;;4935356;28;20018;-54
2024/03/03 03:47:20;;;;;;;31.00;17.23;;;5.80;99.90;;;;;;4909299;28;20048;-54
2024/03/03 03:49:45;;;;;;;27.38;16.73;;;5.80;99.90;;;;;;4895289;28;20033;-59
2024/03/03 03:52:11;;;;;;;28.13;17.63;;;5.70;99.90;;;;;;4893177;28;20052;-55
2024/03/03 03:54:36;;;;;;;31.52;18.10;;;5.80;99.90;;;;;;4886870;28;22428;-56
2024/03/03 03:57:02;;;;;;;23.75;16.40;;;5.80;99.90;;;;;;4944150;28;20050;-54
2024/03/03 03:59:28;;;;;;;29.83;17.67;;;5.70;99.90;;;;;;4892783;28;20544;-59
2024/03/03 04:01:54;;;;;;;28.90;17.80;;;5.70;99.90;;;;;;4891216;28;20030;-55
2024/03/03 04:04:21;;;;;;;30.85;17.83;;;5.70;99.90;;;;;;4897843;28;20053;-55
2024/03/03 04:06:47;;;;;;;29.73;17.15;;;5.70;99.90;;;;;;4863780;28;20053;-54
2024/03/03 04:09:13;;;;;;;30.08;17.67;;;5.70;99.90;;;;;;4880906;28;20497;-59
2024/03/03 04:11:38;;;;;;;31.60;17.73;;;5.70;99.90;;;;;;4908410;28;20574;-54
2024/03/03 04:14:05;;;;;;;29.30;16.90;;;5.70;99.90;;;;;;4906331;28;20810;-50
2024/03/03 04:16:30;;;;;;;29.95;18.20;;;5.70;99.90;;;;;;4913272;28;20034;-54
2024/03/03 04:18:56;;;;;;;27.42;16.50;;;5.70;99.90;;;;;;4861968;28;20048;-56
2024/03/03 04:21:22;;;;;;;25.63;16.52;;;5.60;99.90;;;;;;4881360;28;20057;-53
2024/03/03 04:23:47;;;;;;;26.48;16.38;;;5.60;99.90;;;;;;4939874;28;21631;-56
2024/03/03 04:26:15;;;;;;;24.88;17.25;;;5.50;99.90;;;;;;4903372;28;20123;-53
2024/03/03 04:28:42;;;;;;;28.23;17.13;;;5.50;99.90;;;;;;4898956;28;20040;-59
2024/03/03 04:31:07;;;;;;;28.42;17.08;;;5.50;99.90;;;;;;4890791;28;20041;-54
2024/03/03 04:33:33;;;;;;;29.90;18.20;;;5.50;99.90;;;;;;4900465;28;20744;-55
2024/03/03 04:35:59;;;;;;;28.00;16.58;;;5.50;99.90;;;;;;4936245;28;20521;-54
2024/03/03 04:38:25;;;;;;;28.60;16.45;;;5.50;99.90;;;;;;4903224;28;20041;-52
2024/03/03 04:40:51;;;;;;;31.48;18.75;;;5.40;99.90;;;;;;4887210;28;20033;-52
2024/03/03 04:43:16;;;;;;;30.42;17.80;;;5.40;99.90;;;;;;4888738;28;20053;-53
2024/03/03 04:45:42;;;;;;;27.70;16.63;;;5.40;99.90;;;;;;4861149;28;20099;-55
2024/03/03 04:48:07;;;;;;;30.38;17.13;;;5.30;99.90;;;;;;4920754;28;20379;-59
2024/03/03 04:50:33;;;;;;;27.23;16.35;;;5.30;99.90;;;;;;4916660;28;20037;-55
2024/03/03 04:52:58;;;;;;;29.23;18.13;;;5.30;99.90;;;;;;4903394;28;20030;-54
2024/03/03 04:55:24;;;;;;;30.13;16.85;;;5.30;99.90;;;;;;4908669;28;20029;-54
2024/03/03 04:57:51;;;;;;;29.98;18.27;;;5.30;99.90;;;;;;4856859;28;20033;-57
2024/03/03 05:00:17;;;;;;;26.15;17.15;;;5.30;99.90;;;;;;4873646;28;20034;-59
2024/03/03 05:02:43;;;;;;;26.85;17.45;;;5.40;99.90;;;;;;4945733;28;20025;-52
2024/03/03 05:05:09;;;;;;;30.85;18.75;;;5.40;99.90;;;;;;4897811;28;21553;-55
2024/03/03 05:07:35;;;;;;;30.90;19.05;;;5.40;99.90;;;;;;4959367;28;20057;-55
2024/03/03 05:10:00;;;;;;;29.95;18.90;;;5.40;99.90;;;;;;4938365;28;20041;-57
2024/03/03 05:12:26;;;;;;;30.13;19.80;;;5.40;99.90;;;;;;4921481;28;20475;-54
2024/03/03 05:14:52;;;;;;;35.03;18.30;;;5.40;99.90;;;;;;4911331;28;22334;-54
2024/03/03 05:17:17;;;;;;;31.45;19.77;;;5.40;99.90;;;;;;4954709;28;20083;-54
2024/03/03 05:19:43;;;;;;;28.42;18.60;;;5.40;99.90;;;;;;4962806;28;20434;-59
2024/03/03 05:22:09;;;;;;;32.25;20.00;;;5.50;99.90;;;;;;4926298;28;20454;-54
2024/03/03 05:24:34;;;;;;;30.52;19.27;;;5.50;99.90;;;;;;4941228;28;20038;-54
2024/03/03 05:27:00;;;;;;;34.50;19.92;;;5.50;99.90;;;;;;4940767;28;20038;-54
2024/03/03 05:29:28;;;;;;;36.83;20.90;;;5.50;99.90;;;;;;4946802;28;20053;-60
2024/03/03 05:31:54;;;;;;;33.92;20.08;;;5.50;99.90;;;;;;4920720;28;20028;-55
2024/03/03 05:34:19;;;;;;;27.85;18.30;;;5.50;99.90;;;;;;4952426;28;20030;-53
2024/03/03 05:36:46;;;;;;;34.58;18.15;;;5.50;99.90;;;;;;4942296;28;20141;-57
2024/03/03 05:39:12;;;;;;;31.40;18.83;;;5.40;99.90;;;;;;4906841;28;20022;-56
2024/03/03 05:41:39;;;;;;;31.85;19.05;;;5.40;99.90;;;;;;4895273;28;20030;-54
2024/03/03 05:44:06;;;;;;;32.25;19.48;;;5.50;99.90;;;;;;4941505;28;21794;-54
2024/03/03 05:46:36;;;;;;;37.40;20.55;;;5.50;99.90;;;;;;4970689;28;20077;-53
2024/03/03 05:49:02;;;;;;;30.58;18.85;;;5.50;99.90;;;;;;4939962;28;20037;-56
2024/03/03 05:51:28;;;;;;;33.67;19.92;;;5.50;99.90;;;;;;4924642;28;20099;-55
2024/03/03 05:53:54;;;;;;;33.78;20.08;;;5.40;99.90;;;;;;4926225;28;20042;-54
2024/03/03 05:56:19;;;;;;;35.15;21.55;;;5.40;99.90;;;;;;4938734;28;20065;-54
2024/03/03 05:58:45;;;;;;;33.30;19.02;;;5.40;99.90;;;;;;4937620;28;20044;-59
2024/03/03 06:01:11;;;;;;;33.45;20.58;;;5.40;99.90;;;;;;4940412;28;20493;-56
2024/03/03 06:03:37;;;;;;;31.80;19.80;;;5.40;99.90;;;;;;4932615;28;20038;-56
2024/03/03 06:06:04;;;;;;;31.02;19.20;;;5.40;99.90;;;;;;4899119;28;20034;-55
2024/03/03 06:08:30;;;;;;;34.05;21.13;;;5.40;99.90;;;;;;4906058;28;20030;-59
2024/03/03 06:10:56;;;;;;;33.15;21.05;;;5.40;99.90;;;;;;4934975;28;20034;-56
2024/03/03 06:13:22;;;;;;;37.65;21.05;;;5.40;99.90;;;;;;4947950;28;20036;-56
2024/03/03 06:15:47;;;;;;;33.17;20.35;;;5.40;99.90;;;;;;4898524;28;20026;-55
2024/03/03 06:18:13;;;;;;;36.25;20.98;;;5.40;99.90;;;;;;4915519;28;20025;-56
2024/03/03 06:20:39;;;;;;;37.50;21.17;;;5.40;99.90;;;;;;4895178;28;20022;-52
2024/03/03 06:23:05;;;;;;;36.20;20.40;;;5.40;99.90;;;;;;4930791;28;21519;-55
2024/03/03 06:25:31;;;;;;;33.70;20.75;;;5.40;99.90;;;;;;4923713;28;20037;-54
2024/03/03 06:27:57;;;;;;;30.67;19.73;;;5.40;99.90;;;;;;4939991;28;20129;-54
2024/03/03 06:30:22;;;;;;;33.22;19.48;;;5.30;99.90;;;;;;4887535;28;20029;-51
2024/03/03 06:32:48;;;;;;;30.80;20.23;;;5.30;99.90;;;;;;4888199;28;21796;-55
2024/03/03 06:35:14;;;;;;;31.02;19.95;;;5.30;99.90;;;;;;4927089;28;20088;-54
2024/03/03 06:37:39;;;;;;;33.20;19.60;;;5.30;99.90;;;;;;4958273;28;20034;-54
2024/03/03 06:40:09;;;;;;;32.03;19.67;;;5.30;99.90;;;;;;4892243;28;20413;-56
2024/03/03 06:42:35;;;;;;;31.83;19.25;;;5.30;99.90;;;;;;4924428;28;20423;-56
2024/03/03 06:45:00;;;;;;;31.60;18.83;;;5.30;99.90;;;;;;4924586;28;20045;-56
2024/03/03 06:47:29;;;;;;;31.00;20.77;;;5.30;99.90;;;;;;4926043;28;20045;-56
2024/03/03 06:49:55;;;;;;;30.27;18.00;;;5.20;99.90;;;;;;4911775;28;20030;-56
2024/03/03 06:52:21;;;;;;;31.15;19.90;;;5.30;99.90;;;;;;4939222;28;20041;-57
2024/03/03 06:54:47;;;;;;;33.47;20.05;;;5.30;99.90;;;;;;4938512;28;20034;-55
2024/03/03 06:57:13;;;;;;;34.15;20.08;;;5.30;99.90;;;;;;4919455;28;20035;-57
2024/03/03 06:59:40;;;;;;;35.00;19.83;;;5.30;99.90;;;;;;4890810;28;20022;-56
2024/03/03 07:02:06;;;;;;;30.20;18.55;;;5.30;99.90;;;;;;4920794;28;21506;-57
2024/03/03 07:04:31;;;;;;;27.00;18.98;;;5.30;99.90;;;;;;4943322;28;20038;-55
2024/03/03 07:06:57;;;;;;;32.85;20.45;;;5.30;99.90;;;;;;4940049;28;20049;-56
2024/03/03 07:09:23;;;;;;;29.25;20.00;;;5.30;99.90;;;;;;4871287;28;20030;-54
2024/03/03 07:11:53;;;;;;;31.27;20.15;;;5.30;99.90;;;;;;4904149;28;21771;-56
2024/03/03 07:14:20;;;;;;;35.10;20.83;;;5.30;99.90;;;;;;4919549;28;20034;-57
2024/03/03 07:16:46;;;;;;;28.00;19.25;;;5.20;99.90;;;;;;4904463;28;20521;-59
2024/03/03 07:19:12;;;;;;;28.88;19.30;;;5.20;99.90;;;;;;4927243;28;20034;-55
2024/03/03 07:21:37;;;;;;;32.53;21.02;;;5.20;99.90;;;;;;4933308;28;20046;-55
2024/03/03 07:24:03;;;;;;;36.10;21.67;;;5.30;99.90;;;;;;4909964;28;20037;-58
2024/03/03 07:26:29;;;;;;;32.72;20.60;;;5.30;99.90;;;;;;4902922;28;20037;-60
2024/03/03 07:28:55;;;;;;;32.58;19.98;;;5.30;99.90;;;;;;4915585;28;20494;-58
2024/03/03 07:31:21;;;;;;;33.72;20.58;;;5.30;99.90;;;;;;4954917;28;20026;-55
2024/03/03 07:33:46;;;;;;;34.50;20.83;;;5.30;99.90;;;;;;4929124;28;20033;-55
2024/03/03 07:36:12;;;;;;;33.38;21.13;;;5.30;99.90;;;;;;4886036;28;20049;-57
2024/03/03 07:38:37;;;;;;;34.40;20.92;;;5.30;99.90;;;;;;4859264;28;20042;-55
2024/03/03 07:41:03;;;;;;;32.00;19.33;;;5.40;99.90;;;;;;4911768;28;21694;-55
2024/03/03 07:43:30;;;;;;;35.15;19.98;;;5.40;99.90;;;;;;4937091;28;21381;-54
2024/03/03 07:45:56;;;;;;;33.45;20.08;;;5.40;99.90;;;;;;4924795;28;20026;-55
2024/03/03 07:48:21;;;;;;;35.13;20.63;;;5.40;99.90;;;;;;4901214;28;20041;-55
2024/03/03 07:50:47;;;;;;;37.80;22.90;;;5.50;99.90;;;;;;4934218;28;21742;-56
2024/03/03 07:53:13;;;;;;;38.92;23.05;;;5.50;99.90;;;;;;4907276;28;22732;-56
2024/03/03 07:55:38;;;;;;;34.80;21.15;;;5.60;99.90;;;;;;4965417;28;20030;-52
2024/03/03 07:58:04;;;;;;;40.55;22.80;;;5.60;99.90;;;;;;4957966;28;20037;-56
2024/03/03 08:00:35;;;;;;;36.25;22.23;;;5.70;99.90;;;;;;4854773;28;20084;-53
2024/03/03 08:03:01;;;;;;;42.90;23.45;;;5.80;99.90;;;;;;4902190;28;20041;-51
2024/03/03 08:05:28;;;;;;;34.58;22.70;;;5.80;99.90;;;;;;4948756;28;20034;-57
2024/03/03 08:07:54;;;;;;;39.83;23.23;;;5.90;99.90;;;;;;4917565;28;20056;-58
2024/03/03 08:10:20;;;;;;;39.33;24.23;;;6.00;99.90;;;;;;4963600;28;20109;-55
2024/03/03 08:12:46;;;;;;;44.35;25.15;;;6.00;99.90;;;;;;4930294;28;21785;-55
2024/03/03 08:15:12;;;;;;;38.15;24.27;;;6.10;99.90;;;;;;4898750;28;20065;-55
2024/03/03 08:17:37;;;;;;;44.08;25.55;;;6.20;99.90;;;;;;4897959;28;20033;-52
2024/03/03 08:20:03;;;;;;;41.72;24.90;;;6.20;99.90;;;;;;4900457;28;20739;-55
2024/03/03 08:22:29;;;;;;;42.38;25.55;;;6.30;99.90;;;;;;4962088;28;22358;-56
2024/03/03 08:24:54;;;;;;;44.95;24.83;;;6.40;99.90;;;;;;4933986;28;20041;-55
2024/03/03 08:27:21;;;;;;;42.10;23.67;;;6.40;99.90;;;;;;4962898;28;20057;-56
2024/03/03 08:29:46;;;;;;;41.13;25.15;;;6.50;99.90;;;;;;4954824;28;20061;-55
2024/03/03 08:32:12;;;;;;;40.53;26.20;;;6.60;99.90;;;;;;4964850;28;20467;-55
2024/03/03 08:34:37;;;;;;;44.38;27.80;;;6.70;99.90;;;;;;4940401;28;20049;-57
2024/03/03 08:37:03;;;;;;;41.58;25.63;;;6.80;99.90;;;;;;4989390;28;20474;-52
2024/03/03 08:39:29;;;;;;;42.20;25.45;;;7.00;99.90;;;;;;4926447;28;20507;-57
2024/03/03 08:41:54;;;;;;;44.67;26.13;;;7.00;99.90;;;;;;4962493;28;20022;-56
2024/03/03 08:44:20;;;;;;;45.75;27.02;;;7.10;99.90;;;;;;4968108;28;20036;-55
2024/03/03 08:46:47;;;;;;;45.10;26.90;;;7.20;99.90;;;;;;4948442;28;20104;-56
2024/03/03 08:49:12;;;;;;;44.45;27.38;;;7.30;99.90;;;;;;4945290;28;20065;-59
2024/03/03 08:51:42;;;;;;;43.63;26.52;;;7.40;99.90;;;;;;4977756;28;20081;-54
2024/03/03 08:54:08;;;;;;;39.95;24.52;;;7.40;99.90;;;;;;4957593;28;20801;-56
2024/03/03 08:56:33;;;;;;;42.03;27.20;;;7.60;99.90;;;;;;4957192;28;20029;-55
2024/03/03 08:58:59;;;;;;;43.08;26.90;;;7.70;99.90;;;;;;4954131;28;20030;-55
2024/03/03 09:01:24;;;;;;;44.53;27.23;;;7.80;99.90;;;;;;4950070;28;20493;-56
2024/03/03 09:03:50;;;;;;;45.85;26.27;;;8.00;99.90;;;;;;4984467;28;20511;-52
2024/03/03 09:06:18;;;;;;;44.88;27.20;;;8.10;99.90;;;;;;4957983;28;20457;-56
2024/03/03 09:08:44;;;;;;;44.63;27.25;;;8.20;99.90;;;;;;4940547;28;20791;-54
2024/03/03 09:11:12;;;;;;;48.17;27.45;;;8.30;99.90;;;;;;4953374;28;20030;-57
2024/03/03 09:13:37;;;;;;;41.63;26.33;;;8.50;99.90;;;;;;4946384;28;20036;-54
2024/03/03 09:16:04;;;;;;;42.28;26.55;;;8.60;99.90;;;;;;4992593;28;20431;-53
2024/03/03 09:18:29;;;;;;;41.95;26.92;;;8.80;99.90;;;;;;4971730;28;20550;-53
2024/03/03 09:20:55;;;;;;;36.67;24.77;;;8.90;99.90;;;;;;4989999;28;20113;-56
2024/03/03 09:23:20;;;;;;;38.17;23.60;;;8.90;99.90;;;;;;4989993;28;20155;-57
2024/03/03 09:25:46;;;;;;;42.78;25.00;;;9.00;99.90;;;;;;4985214;28;20029;-54
2024/03/03 09:28:12;;;;;;;40.72;24.83;;;9.20;99.90;;;;;;4987180;28;20073;-57
2024/03/03 09:30:37;;;;;;;37.92;25.48;;;9.30;99.90;;;;;;4997377;28;20118;-53
2024/03/03 09:33:03;;;;;;;35.47;25.13;;;9.40;99.90;;;;;;4990266;28;21914;-56
2024/03/03 09:35:28;;;;;;;38.53;24.42;;;9.50;99.90;;;;;;4986921;28;20034;-53
2024/03/03 09:37:54;;;;;;;35.67;23.90;;;9.60;99.90;;;;;;4977839;28;20087;-56
2024/03/03 09:40:22;;;;;;;34.90;22.98;;;9.70;99.90;;;;;;4980785;28;20030;-56
2024/03/03 09:42:49;;;;;;;34.35;22.95;;;9.90;99.90;;;;;;4995145;28;21489;-55
2024/03/03 09:45:19;;;;;;;33.78;22.33;;;10.00;99.90;;;;;;4986386;28;20026;-56
2024/03/03 09:47:46;;;;;;;36.58;23.95;;;10.10;99.90;;;;;;4981437;28;20084;-57
2024/03/03 09:50:13;;;;;;;37.10;23.48;;;10.20;99.90;;;;;;4982597;28;20132;-55
2024/03/03 09:52:41;;;;;;;32.90;22.60;;;10.30;99.90;;;;;;4979659;28;20098;-55
2024/03/03 09:55:10;;;;;;;34.78;22.50;;;10.50;99.90;;;;;;4991490;28;20476;-59
2024/03/03 09:57:39;;;;;;;29.60;21.67;;;10.60;99.90;;;;;;4985868;28;20026;-53
2024/03/03 10:00:07;;;;;;;35.50;23.80;;;10.70;99.90;;;;;;4984373;28;20033;-55
2024/03/03 10:02:35;;;;;;;30.65;21.35;;;10.70;99.90;;;;;;4986018;28;20422;-54
2024/03/03 10:05:03;;;;;;;31.70;21.52;;;10.80;99.90;;;;;;4977515;28;20037;-54
2024/03/03 10:07:34;;;;;;;35.63;21.83;;;10.90;99.90;;;;;;4975240;28;21370;-54
2024/03/03 10:10:04;;;;;;;35.35;21.80;;;11.00;99.90;;;;;;4995232;28;20087;-55
2024/03/03 10:12:32;;;;;;;29.05;20.70;;;11.10;99.90;;;;;;4976223;28;20092;-54
2024/03/03 10:14:58;;;;;;;31.90;21.25;;;11.20;99.90;;;;;;4979966;28;20036;-55
2024/03/03 10:17:25;;;;;;;30.75;21.50;;;11.20;99.90;;;;;;4983289;28;20033;-55
2024/03/03 10:19:50;;;;;;;33.75;20.67;;;11.30;99.90;;;;;;4973386;28;20052;-54
2024/03/03 10:22:20;;;;;;;31.00;21.02;;;11.40;99.90;;;;;;4976532;28;20658;-55
2024/03/03 10:24:46;;;;;;;28.33;18.83;;;11.40;99.90;;;;;;4992265;28;21765;-55
2024/03/03 10:27:16;;;;;;;30.17;19.67;;;11.50;99.90;;;;;;4984791;28;20111;-55
2024/03/03 10:29:43;;;;;;;26.75;19.50;;;11.60;99.90;;;;;;4983873;28;20029;-60
2024/03/03 10:32:10;;;;;;;31.05;21.13;;;11.70;99.90;;;;;;4922177;28;20525;-53
2024/03/03 10:34:40;;;;;;;29.45;20.75;;;11.80;99.90;;;;;;4913629;28;20133;-56
2024/03/03 10:37:06;;;;;;;27.98;18.27;;;11.80;99.90;;;;;;4962818;28;20574;-51
2024/03/03 10:39:35;;;;;;;28.08;19.77;;;11.90;99.90;;;;;;4909217;28;20022;-60
2024/03/03 10:42:07;;;;;;;26.85;18.60;;;12.00;99.90;;;;;;4932379;28;20498;-54
2024/03/03 10:44:33;;;;;;;28.08;18.65;;;12.10;99.90;;;;;;4925378;28;20037;-59
2024/03/03 10:46:58;;;;;;;28.33;19.15;;;12.10;99.90;;;;;;4927260;28;20033;-54
2024/03/03 10:49:25;;;;;;;28.73;20.27;;;12.10;99.90;;;;;;4894594;28;20034;-54
2024/03/03 10:51:51;;;;;;;27.02;17.35;;;12.20;99.90;;;;;;4943039;28;21926;-55
2024/03/03 10:54:18;;;;;;;27.00;17.73;;;12.20;99.90;;;;;;4930825;28;20038;-55
2024/03/03 10:56:44;;;;;;;24.48;18.33;;;12.30;99.90;;;;;;4938455;28;20034;-59
2024/03/03 10:59:11;;;;;;;27.75;18.92;;;12.30;99.90;;;;;;4930444;28;20030;-55
2024/03/03 11:01:36;;;;;;;28.42;19.02;;;12.40;99.90;;;;;;4905138;28;20033;-56
2024/03/03 11:04:05;;;;;;;25.65;17.70;;;12.40;99.90;;;;;;4953843;28;20402;-55
2024/03/03 11:06:32;;;;;;;24.48;17.33;;;12.50;99.90;;;;;;4901466;28;20044;-59
2024/03/03 11:08:58;;;;;;;29.65;18.73;;;12.50;99.90;;;;;;4926949;28;20037;-54
2024/03/03 11:11:25;;;;;;;24.83;17.77;;;12.50;99.90;;;;;;4937509;28;20038;-56
2024/03/03 11:14:04;;;;;;;26.00;17.45;;;12.70;99.90;;;;;;4894612;28;20033;-56
2024/03/03 11:16:29;;;;;;;25.05;17.05;;;12.70;99.90;;;;;;4900724;28;22270;-54
2024/03/03 11:19:02;;;;;;;24.20;16.45;;;12.70;99.90;;;;;;4949883;28;20117;-52
2024/03/03 11:21:31;;;;;;;24.90;16.60;;;12.70;99.90;;;;;;4913576;28;20104;-60
2024/03/03 11:24:06;;;;;;;26.13;17.52;;;12.60;99.90;;;;;;4922049;28;20121;-56
2024/03/03 11:26:41;;;;;;;20.63;15.95;;;12.70;99.90;;;;;;4918364;28;20076;-55
2024/03/03 11:29:09;;;;;;;24.35;17.38;;;12.70;99.90;;;;;;4904495;28;20029;-56
2024/03/03 11:31:35;;;;;;;21.90;16.13;;;12.70;99.90;;;;;;4901255;28;22432;-55
2024/03/03 11:34:02;;;;;;;25.42;17.95;;;12.70;99.90;;;;;;4935391;28;20033;-54
2024/03/03 11:36:29;;;;;;;20.98;16.05;;;12.80;99.90;;;;;;4902718;28;20025;-60
2024/03/03 11:38:58;;;;;;;21.70;16.20;;;12.90;99.90;;;;;;4909186;28;20630;-56
2024/03/03 11:41:23;;;;;;;25.45;17.10;;;12.90;99.90;;;;;;4933786;28;20089;-54
2024/03/03 11:43:51;;;;;;;21.77;17.52;;;13.00;99.90;;;;;;4902086;28;20401;-54
2024/03/03 11:46:48;;;;;;;24.90;15.60;;;13.00;99.90;;;;;;4900204;28;20621;-59
2024/03/03 11:49:16;;;;;;;22.67;16.40;;;12.90;99.90;;;;;;4898212;28;20042;-58
2024/03/03 11:51:41;;;;;;;21.98;15.70;;;13.00;99.90;;;;;;4940469;28;20021;-57
2024/03/03 11:54:07;;;;;;;25.00;16.30;;;13.10;99.90;;;;;;4912862;28;21481;-51
2024/03/03 11:56:49;;;;;;;24.95;16.85;;;13.10;99.90;;;;;;4922248;28;20553;-54
2024/03/03 11:59:15;;;;;;;22.42;16.08;;;13.20;99.90;;;;;;4921029;28;20579;-55
2024/03/03 12:01:45;;;;;;;22.25;15.73;;;13.10;99.90;;;;;;4874183;28;20026;-55
2024/03/03 12:04:11;;;;;;;20.27;15.43;;;13.10;99.90;;;;;;4912122;28;20057;-61
2024/03/03 12:06:39;;;;;;;21.17;16.35;;;13.10;99.90;;;;;;4928058;28;20073;-51
2024/03/03 12:09:09;;;;;;;22.98;16.60;;;13.10;99.90;;;;;;4910326;28;21551;-54
2024/03/03 12:11:34;;;;;;;25.10;16.23;;;13.10;99.90;;;;;;4914100;28;20650;-55
2024/03/03 12:14:00;;;;;;;23.15;17.30;;;13.00;99.90;;;;;;4867407;28;20022;-54
2024/03/03 12:16:25;;;;;;;25.45;17.70;;;13.00;99.90;;;;;;4865325;28;21422;-57
2024/03/03 12:18:51;;;;;;;23.75;16.05;;;13.00;99.90;;;;;;4932562;28;22454;-53
2024/03/03 12:21:19;;;;;;;22.88;16.17;;;13.00;99.90;;;;;;4905691;28;20066;-52
2024/03/03 12:23:45;;;;;;;22.45;16.73;;;13.00;99.90;;;;;;4888394;28;20029;-59
2024/03/03 12:26:11;;;;;;;24.13;17.25;;;13.00;99.90;;;;;;4878338;28;20237;-57
2024/03/03 12:28:37;;;;;;;22.63;16.27;;;13.00;99.90;;;;;;4874164;28;21780;-56
2024/03/03 12:31:03;;;;;;;25.27;16.95;;;13.00;99.90;;;;;;4951931;28;20068;-56